Time;durP1;ratioP1;P1;durP2;ratioP2;P2;SDS_P1;SDS_P2;PMS_P1;PMS_P2;Temp;Humidity;BMP_temperature;BMP_pressure;BME280_temperature;BME280_humidity;BME280_pressure;Samples;Min_cycle;Max_cycle;Signal;HPM_P1;HPM_P2
2024/02/06 00:02:42;;;;;;;6.20;2.00;;;;;;;9.84;77.03;99651.05;129938;1270;114808;-60
2024/02/06 00:05:44;;;;;;;6.30;2.30;;;;;;;9.84;76.63;99651.62;129688;1259;114718;-61
2024/02/06 00:08:46;;;;;;;6.40;2.50;;;;;;;9.84;76.87;99641.64;129922;1259;115609;-60
2024/02/06 00:11:48;;;;;;;5.20;2.00;;;;;;;9.83;76.97;99640.07;129925;1261;114817;-61
2024/02/06 00:14:50;;;;;;;5.00;2.40;;;;;;;9.82;76.72;99633.71;129495;1278;114927;-61
2024/02/06 00:17:52;;;;;;;6.80;2.30;;;;;;;9.81;76.67;99635.38;129806;1256;114808;-60
2024/02/06 00:20:54;;;;;;;7.00;2.50;;;;;;;9.80;76.63;99639.34;129784;1259;115243;-61
2024/02/06 00:23:56;;;;;;;7.10;2.50;;;;;;;9.79;76.67;99643.67;129634;1257;114765;-59
2024/02/06 00:26:59;;;;;;;5.90;2.00;;;;;;;9.78;76.75;99639.80;129826;1275;114705;-59
2024/02/06 00:30:01;;;;;;;7.60;2.50;;;;;;;9.78;76.52;99636.96;129836;1257;115142;-59
2024/02/06 00:33:03;;;;;;;5.50;2.00;;;;;;;9.78;76.29;99631.64;129838;1259;115336;-59
2024/02/06 00:36:06;;;;;;;6.60;2.30;;;;;;;9.76;76.72;99635.81;129883;1258;115119;-60
2024/02/06 00:39:08;;;;;;;5.50;2.40;;;;;;;9.76;76.82;99633.19;129827;1259;114783;-60
2024/02/06 00:42:10;;;;;;;7.10;3.00;;;;;;;9.76;76.55;99628.38;129712;1259;114716;-59
2024/02/06 00:45:13;;;;;;;7.30;2.30;;;;;;;9.75;76.49;99628.76;129666;1261;115177;-60
2024/02/06 00:48:14;;;;;;;5.60;2.00;;;;;;;9.75;76.58;99626.65;129845;1259;114833;-60
2024/02/06 00:51:16;;;;;;;8.10;2.40;;;;;;;9.73;76.37;99626.39;129677;1259;114706;-58
2024/02/06 00:54:18;;;;;;;8.40;2.30;;;;;;;9.72;76.39;99629.12;129804;1272;115094;-59
2024/02/06 00:57:21;;;;;;;6.90;3.00;;;;;;;9.71;76.38;99625.79;129778;1261;115314;-60
2024/02/06 01:00:23;;;;;;;9.00;2.80;;;;;;;9.69;76.42;99628.89;129844;1259;114656;-59
2024/02/06 01:03:26;;;;;;;9.00;2.40;;;;;;;9.68;76.36;99625.89;129920;1270;114720;-59
2024/02/06 01:06:28;;;;;;;5.10;2.50;;;;;;;9.68;76.44;99622.55;129937;1271;115161;-58
2024/02/06 01:09:30;;;;;;;6.20;2.50;;;;;;;9.67;76.16;99617.29;129769;1259;115453;-59
2024/02/06 01:12:32;;;;;;;3.80;1.40;;;;;;;9.66;76.44;99616.44;129838;1257;114712;-60
2024/02/06 01:15:35;;;;;;;7.00;3.10;;;;;;;9.65;76.25;99614.54;129801;1259;114789;-61
2024/02/06 01:18:37;;;;;;;10.60;2.80;;;;;;;9.64;76.29;99614.05;129652;1271;114720;-59
2024/02/06 01:21:39;;;;;;;10.00;2.60;;;;;;;9.64;76.30;99617.11;129782;1263;114747;-60
2024/02/06 01:24:41;;;;;;;4.80;2.30;;;;;;;9.62;76.26;99617.52;129779;1278;114761;-60
2024/02/06 01:27:43;;;;;;;8.30;2.60;;;;;;;9.62;76.24;99613.80;129562;1278;198815;-60
2024/02/06 01:30:45;;;;;;;7.30;2.10;;;;;;;9.62;76.25;99616.14;129735;1278;114751;-60
2024/02/06 01:33:47;;;;;;;6.60;2.40;;;;;;;9.61;76.19;99615.11;129751;1260;115389;-60
2024/02/06 01:36:49;;;;;;;5.90;2.30;;;;;;;9.60;76.15;99610.38;129466;1265;128978;-60
2024/02/06 01:39:51;;;;;;;8.80;2.80;;;;;;;9.59;76.10;99613.98;129793;1259;114951;-60
2024/02/06 01:42:53;;;;;;;6.80;2.40;;;;;;;9.57;76.26;99613.36;129763;1272;115228;-59
2024/02/06 01:45:55;;;;;;;7.90;2.80;;;;;;;9.56;76.27;99610.54;129514;1256;114730;-59
2024/02/06 01:48:58;;;;;;;6.90;2.80;;;;;;;9.56;76.09;99604.14;129721;1259;114710;-59
2024/02/06 01:52:00;;;;;;;6.80;3.00;;;;;;;9.56;76.31;99607.35;129679;1259;115343;-60
2024/02/06 01:55:03;;;;;;;4.80;2.30;;;;;;;9.55;76.16;99609.38;129906;1259;114761;-59
2024/02/06 01:58:06;;;;;;;9.50;3.00;;;;;;;9.54;75.95;99605.48;129777;1278;129010;-60
2024/02/06 02:01:08;;;;;;;7.50;3.30;;;;;;;9.53;76.12;99603.98;129616;1268;115250;-59
2024/02/06 02:04:11;;;;;;;7.20;3.20;;;;;;;9.52;76.09;99606.16;129750;1256;114811;-59
2024/02/06 02:07:13;;;;;;;8.90;3.00;;;;;;;9.50;76.09;99604.99;129751;1257;114734;-59
2024/02/06 02:10:16;;;;;;;9.90;3.30;;;;;;;9.50;76.19;99600.61;129876;1259;114722;-59
2024/02/06 02:13:18;;;;;;;8.40;3.10;;;;;;;9.49;76.09;99600.98;129724;1268;114786;-59
2024/02/06 02:16:22;;;;;;;5.20;3.10;;;;;;;9.48;76.18;99598.72;129854;1259;115374;-59
2024/02/06 02:19:24;;;;;;;4.10;2.40;;;;;;;9.47;76.11;99592.70;129809;1278;129644;-60
2024/02/06 02:22:26;;;;;;;7.00;2.50;;;;;;;9.46;76.29;99598.48;129852;1278;114777;-59
2024/02/06 02:25:28;;;;;;;7.50;3.00;;;;;;;9.45;76.08;99598.74;129853;1259;115390;-60
2024/02/06 02:28:30;;;;;;;6.10;2.90;;;;;;;9.44;76.01;99601.62;129747;1259;114811;-59
2024/02/06 02:31:33;;;;;;;11.30;2.70;;;;;;;9.43;76.10;99596.49;129850;1256;116444;-59
2024/02/06 02:34:35;;;;;;;9.40;2.50;;;;;;;9.42;76.29;99601.54;129736;1257;114737;-59
2024/02/06 02:37:37;;;;;;;7.30;2.50;;;;;;;9.41;76.08;99603.41;129943;1259;114711;-59
2024/02/06 02:40:40;;;;;;;7.30;2.40;;;;;;;9.40;76.20;99604.16;129617;1264;128393;-60
2024/02/06 02:43:41;;;;;;;11.20;3.00;;;;;;;9.39;75.99;99603.85;129713;1278;114741;-59
2024/02/06 02:46:44;;;;;;;7.00;2.80;;;;;;;9.39;75.99;99601.54;129778;1260;114788;-59
2024/02/06 02:49:46;;;;;;;7.00;2.50;;;;;;;9.38;75.98;99601.23;129926;1268;114713;-59
2024/02/06 02:52:48;;;;;;;7.60;2.50;;;;;;;9.36;75.91;99605.65;129901;1259;115349;-59
2024/02/06 02:55:51;;;;;;;13.80;3.70;;;;;;;9.35;76.04;99606.05;129848;1259;114898;-58
2024/02/06 02:58:53;;;;;;;7.80;3.10;;;;;;;9.34;75.97;99609.48;129661;1259;115163;-59
2024/02/06 03:01:55;;;;;;;8.00;2.50;;;;;;;9.34;75.84;99615.90;129759;1259;115270;-59
2024/02/06 03:04:57;;;;;;;9.60;3.20;;;;;;;9.33;75.63;99609.37;129887;1259;120227;-59
2024/02/06 03:07:59;;;;;;;7.60;3.40;;;;;;;9.33;75.69;99610.27;129981;1259;114734;-59
2024/02/06 03:11:01;;;;;;;13.90;3.20;;;;;;;9.31;75.69;99610.52;129837;1259;114792;-59
2024/02/06 03:14:03;;;;;;;6.10;3.50;;;;;;;9.30;75.64;99607.58;129798;1257;114788;-59
2024/02/06 03:17:06;;;;;;;9.30;2.80;;;;;;;9.29;75.55;99607.77;129706;1259;114851;-60
2024/02/06 03:20:09;;;;;;;9.60;3.30;;;;;;;9.27;75.64;99610.90;129889;1257;114851;-59
2024/02/06 03:23:11;;;;;;;9.80;4.10;;;;;;;9.28;75.55;99613.73;129748;1259;115312;-59
2024/02/06 03:26:13;;;;;;;8.40;3.00;;;;;;;9.26;75.35;99614.17;129716;1259;114776;-59
2024/02/06 03:29:15;;;;;;;6.70;3.90;;;;;;;9.25;75.43;99614.05;129875;1259;114716;-60
2024/02/06 03:32:18;;;;;;;8.80;3.40;;;;;;;9.23;75.52;99615.96;129847;1259;114771;-59
2024/02/06 03:35:20;;;;;;;7.00;2.70;;;;;;;9.22;75.45;99617.27;129843;1259;114834;-59
2024/02/06 03:38:22;;;;;;;7.60;2.90;;;;;;;9.21;75.34;99620.37;129998;1259;115447;-61
2024/02/06 03:41:24;;;;;;;10.90;3.30;;;;;;;9.19;75.41;99617.96;129569;1265;114747;-60
2024/02/06 03:44:26;;;;;;;6.90;2.90;;;;;;;9.17;75.41;99617.35;129769;1259;115180;-59
2024/02/06 03:47:29;;;;;;;6.80;3.00;;;;;;;9.16;75.37;99613.30;129833;1260;114881;-59
2024/02/06 03:50:31;;;;;;;8.20;3.20;;;;;;;9.13;75.36;99614.70;129655;1278;114810;-59
2024/02/06 03:53:33;;;;;;;8.80;2.90;;;;;;;9.12;75.25;99607.48;129935;1278;114767;-59
2024/02/06 03:56:35;;;;;;;7.00;3.10;;;;;;;9.11;75.25;99612.34;129992;1259;114731;-59
2024/02/06 03:59:37;;;;;;;6.50;2.90;;;;;;;9.10;75.05;99609.91;129652;1257;114764;-60
2024/02/06 04:02:39;;;;;;;5.90;2.10;;;;;;;9.09;75.22;99614.78;129708;1259;115272;-60
2024/02/06 04:05:41;;;;;;;9.70;3.00;;;;;;;9.06;75.16;99620.61;129914;1260;114772;-60
2024/02/06 04:08:43;;;;;;;10.00;4.10;;;;;;;9.04;75.18;99618.08;129523;1279;128604;-59
2024/02/06 04:11:45;;;;;;;8.00;2.80;;;;;;;9.02;74.96;99618.50;129979;1263;114735;-59
2024/02/06 04:14:47;;;;;;;9.90;3.30;;;;;;;9.02;75.07;99623.52;129738;1262;114721;-60
2024/02/06 04:17:51;;;;;;;6.70;3.60;;;;;;;9.00;74.95;99617.55;130148;1269;114784;-60
2024/02/06 04:20:55;;;;;;;8.20;2.90;;;;;;;8.99;74.99;99624.91;130098;1256;114686;-61
2024/02/06 04:23:57;;;;;;;8.90;2.90;;;;;;;8.98;75.05;99627.47;129930;1256;114716;-60
2024/02/06 04:26:59;;;;;;;8.30;2.90;;;;;;;8.96;75.01;99632.70;129721;1262;114784;-59
2024/02/06 04:30:02;;;;;;;8.80;2.90;;;;;;;8.94;74.92;99633.40;129698;1279;128748;-59
2024/02/06 04:33:04;;;;;;;12.40;3.50;;;;;;;8.93;74.99;99632.02;129690;1272;114678;-59
2024/02/06 04:36:07;;;;;;;6.70;3.10;;;;;;;8.93;75.07;99633.09;130029;1260;115089;-59
2024/02/06 04:39:10;;;;;;;10.00;3.30;;;;;;;8.92;74.85;99628.50;129819;1262;115257;-60
2024/02/06 04:42:12;;;;;;;8.30;3.20;;;;;;;8.90;74.78;99622.00;129636;1260;114708;-60
2024/02/06 04:45:14;;;;;;;8.10;3.10;;;;;;;8.88;74.92;99621.23;129472;1262;115157;-60
2024/02/06 04:48:16;;;;;;;9.40;3.70;;;;;;;8.87;74.63;99624.66;129767;1257;116401;-60
2024/02/06 04:51:18;;;;;;;13.60;3.10;;;;;;;8.85;74.68;99620.70;129565;1279;128341;-60
2024/02/06 04:54:21;;;;;;;7.20;2.90;;;;;;;8.84;74.85;99618.79;129606;1261;114793;-60
2024/02/06 04:57:24;;;;;;;8.90;2.70;;;;;;;8.83;74.56;99616.36;129643;1260;114697;-60
2024/02/06 05:00:26;;;;;;;10.20;3.60;;;;;;;8.80;74.48;99610.59;129645;1267;114783;-60
2024/02/06 05:03:28;;;;;;;6.80;2.40;;;;;;;8.79;74.42;99604.59;129729;1256;114739;-60
2024/02/06 05:06:31;;;;;;;6.70;2.40;;;;;;;8.79;74.45;99602.30;129590;1269;114785;-60
2024/02/06 05:09:33;;;;;;;8.50;3.10;;;;;;;8.77;74.07;99606.88;129486;1262;114704;-60
2024/02/06 05:12:35;;;;;;;7.30;3.30;;;;;;;8.74;74.15;99603.64;129581;1262;114762;-60
2024/02/06 05:15:37;;;;;;;6.20;2.50;;;;;;;8.73;74.15;99592.27;129510;1279;114719;-60
2024/02/06 05:18:39;;;;;;;9.50;3.10;;;;;;;8.73;74.14;99578.04;129640;1278;114740;-59
2024/02/06 05:21:41;;;;;;;6.80;3.10;;;;;;;8.71;73.93;99573.73;129713;1256;115397;-59
2024/02/06 05:24:45;;;;;;;7.50;3.00;;;;;;;8.68;74.05;99568.90;129845;1279;114787;-59
2024/02/06 05:27:47;;;;;;;9.00;2.80;;;;;;;8.65;73.75;99561.55;129552;1280;114754;-60
2024/02/06 05:30:49;;;;;;;7.70;2.40;;;;;;;8.64;74.11;99563.77;129572;1270;114709;-60
2024/02/06 05:33:51;;;;;;;6.50;3.00;;;;;;;8.63;73.99;99565.75;129720;1273;114685;-60
2024/02/06 05:36:54;;;;;;;9.70;3.40;;;;;;;8.62;73.61;99568.98;129378;1279;114831;-60
2024/02/06 05:39:55;;;;;;;8.00;3.30;;;;;;;8.62;73.80;99567.92;129628;1256;115208;-60
2024/02/06 05:42:58;;;;;;;5.50;3.30;;;;;;;8.63;73.63;99572.70;129694;1262;115170;-60
2024/02/06 05:46:00;;;;;;;8.20;3.40;;;;;;;8.62;73.77;99571.12;129615;1262;114773;-60
2024/02/06 05:49:02;;;;;;;5.10;2.50;;;;;;;8.62;73.50;99562.80;129674;1256;115250;-60
2024/02/06 05:52:05;;;;;;;7.00;2.50;;;;;;;8.61;73.36;99565.70;129871;1270;114826;-60
2024/02/06 05:55:09;;;;;;;4.40;2.60;;;;;;;8.61;73.53;99568.71;129527;1274;127853;-60
2024/02/06 05:58:11;;;;;;;4.90;2.30;;;;;;;8.61;73.51;99562.13;129795;1262;114757;-60
2024/02/06 06:01:13;;;;;;;4.30;2.30;;;;;;;8.60;73.36;99564.30;129912;1259;115200;-60
2024/02/06 06:04:15;;;;;;;5.00;2.40;;;;;;;8.60;73.25;99558.30;129644;1262;114670;-60
2024/02/06 06:07:18;;;;;;;6.20;2.40;;;;;;;8.60;73.42;99562.73;129694;1265;114814;-59
2024/02/06 06:10:19;;;;;;;5.40;2.20;;;;;;;8.58;73.25;99562.11;129843;1278;114737;-59
2024/02/06 06:13:24;;;;;;;7.20;2.60;;;;;;;8.58;73.21;99560.34;129841;1278;114814;-59
2024/02/06 06:16:26;;;;;;;5.30;2.80;;;;;;;8.58;72.96;99562.29;129807;1278;129049;-60
2024/02/06 06:19:28;;;;;;;6.40;2.40;;;;;;;8.58;72.75;99560.15;129814;1259;114826;-60
2024/02/06 06:22:31;;;;;;;6.60;2.40;;;;;;;8.57;72.93;99560.39;129930;1259;115263;-60
2024/02/06 06:25:33;;;;;;;6.10;2.00;;;;;;;8.56;72.86;99558.29;129883;1255;114671;-60
2024/02/06 06:28:35;;;;;;;3.60;2.00;;;;;;;8.56;72.89;99557.96;129789;1259;115167;-60
2024/02/06 06:31:37;;;;;;;5.30;2.40;;;;;;;8.54;72.69;99551.64;129902;1257;114815;-60
2024/02/06 06:34:41;;;;;;;6.70;2.20;;;;;;;8.53;72.72;99554.92;129697;1278;114827;-60
2024/02/06 06:37:43;;;;;;;6.50;2.40;;;;;;;8.51;72.54;99555.53;129519;1278;127615;-60
2024/02/06 06:40:45;;;;;;;6.70;2.80;;;;;;;8.51;72.76;99560.72;130062;1268;114766;-60
2024/02/06 06:43:47;;;;;;;5.30;2.60;;;;;;;8.50;72.69;99558.25;129990;1260;114813;-60
2024/02/06 06:46:50;;;;;;;4.70;2.70;;;;;;;8.50;72.73;99557.70;129989;1259;114815;-60
2024/02/06 06:49:52;;;;;;;4.80;1.70;;;;;;;8.50;72.75;99558.95;129727;1278;114818;-60
2024/02/06 06:52:54;;;;;;;6.20;2.30;;;;;;;8.50;72.71;99556.84;129709;1268;114811;-60
2024/02/06 06:55:56;;;;;;;3.30;2.00;;;;;;;8.50;72.79;99556.29;129674;1260;114687;-61
2024/02/06 06:58:58;;;;;;;7.20;1.90;;;;;;;8.52;72.61;99565.10;129682;1270;114678;-60
2024/02/06 07:02:00;;;;;;;7.50;2.10;;;;;;;8.54;72.79;99565.89;129761;1255;114833;-61
2024/02/06 07:05:02;;;;;;;5.80;2.00;;;;;;;8.56;72.78;99564.52;129648;1278;114785;-60
2024/02/06 07:08:05;;;;;;;5.00;2.20;;;;;;;8.58;72.90;99564.96;129726;1258;114785;-60
2024/02/06 07:11:07;;;;;;;3.70;1.80;;;;;;;8.59;72.87;99570.25;129781;1260;114794;-60
2024/02/06 07:14:10;;;;;;;4.50;2.00;;;;;;;8.61;72.93;99567.13;130036;1259;115362;-59
2024/02/06 07:17:12;;;;;;;4.20;2.20;;;;;;;8.62;72.66;99567.23;129846;1268;115372;-60
2024/02/06 07:20:14;;;;;;;4.30;1.90;;;;;;;8.65;72.78;99562.63;129713;1260;114786;-60
2024/02/06 07:23:16;;;;;;;3.50;1.60;;;;;;;8.67;72.67;99566.98;129799;1268;116050;-60
2024/02/06 07:26:21;;;;;;;4.70;1.80;;;;;;;8.68;72.43;99571.38;129758;1260;115110;-60
2024/02/06 07:29:23;;;;;;;5.40;2.20;;;;;;;8.70;72.48;99567.88;129542;1260;114716;-60
2024/02/06 07:32:26;;;;;;;3.50;1.50;;;;;;;8.73;72.69;99560.23;129694;1260;115209;-60
2024/02/06 07:35:28;;;;;;;4.70;1.90;;;;;;;8.75;72.61;99562.09;129834;1260;114722;-60
2024/02/06 07:38:30;;;;;;;3.40;1.90;;;;;;;8.76;72.42;99564.73;129894;1259;114686;-60
2024/02/06 07:41:32;;;;;;;4.10;1.50;;;;;;;8.77;72.38;99562.55;129794;1259;114801;-61
2024/02/06 07:44:34;;;;;;;6.10;2.10;;;;;;;8.77;72.51;99565.93;129695;1258;114788;-59
2024/02/06 07:47:36;;;;;;;9.90;1.80;;;;;;;8.77;72.24;99559.47;129877;1259;114728;-60
2024/02/06 07:50:38;;;;;;;4.20;1.70;;;;;;;8.79;72.52;99554.04;129471;1260;114869;-61
2024/02/06 07:53:41;;;;;;;4.00;1.60;;;;;;;8.82;72.59;99560.13;129917;1259;114766;-60
2024/02/06 07:56:43;;;;;;;3.00;1.50;;;;;;;8.82;72.43;99560.81;129847;1260;114827;-61
2024/02/06 07:59:46;;;;;;;6.70;2.10;;;;;;;8.85;72.45;99566.56;129797;1258;114717;-60
2024/02/06 08:02:48;;;;;;;5.10;1.90;;;;;;;8.87;72.45;99569.98;129735;1278;127643;-60
2024/02/06 08:05:51;;;;;;;4.60;1.30;;;;;;;8.92;72.54;99565.48;129738;1259;114697;-60
2024/02/06 08:08:53;;;;;;;5.20;1.30;;;;;;;8.96;72.19;99568.42;129729;1260;114807;-61
2024/02/06 08:11:56;;;;;;;4.00;1.80;;;;;;;9.00;72.29;99568.57;129987;1259;114748;-61
2024/02/06 08:15:00;;;;;;;3.40;1.10;;;;;;;9.04;72.12;99563.93;129986;1268;114718;-59
2024/02/06 08:18:02;;;;;;;3.10;1.60;;;;;;;9.06;72.10;99571.65;129545;1267;116256;-60
2024/02/06 08:21:05;;;;;;;3.30;1.40;;;;;;;9.08;71.97;99575.11;129729;1260;114716;-61
2024/02/06 08:24:08;;;;;;;4.10;1.60;;;;;;;9.12;72.18;99575.25;129840;1260;114770;-61
2024/02/06 08:27:10;;;;;;;3.70;1.50;;;;;;;9.21;72.20;99573.33;129850;1258;114734;-61
2024/02/06 08:30:13;;;;;;;7.40;3.20;;;;;;;9.30;72.35;99568.36;129905;1261;114764;-60
2024/02/06 08:33:15;;;;;;;6.50;2.70;;;;;;;9.37;72.19;99563.70;129642;1275;114988;-61
2024/02/06 08:36:17;;;;;;;4.60;1.60;;;;;;;9.40;71.97;99568.15;129843;1278;115173;-60
2024/02/06 08:39:20;;;;;;;4.40;1.40;;;;;;;9.43;71.71;99566.58;129798;1263;114730;-60
2024/02/06 08:42:21;;;;;;;2.60;1.30;;;;;;;9.43;71.74;99564.58;129781;1278;128945;-60
2024/02/06 08:45:24;;;;;;;3.30;1.50;;;;;;;9.46;71.64;99566.40;129765;1270;114786;-60
2024/02/06 08:48:28;;;;;;;3.10;0.90;;;;;;;9.51;71.67;99564.17;129781;1259;114706;-61
2024/02/06 08:51:30;;;;;;;3.20;1.70;;;;;;;9.55;71.53;99567.83;129671;1262;114804;-61
2024/02/06 08:54:32;;;;;;;3.10;1.30;;;;;;;9.61;71.43;99570.58;129866;1278;114706;-61
2024/02/06 08:57:35;;;;;;;5.60;1.70;;;;;;;9.63;71.20;99570.59;129834;1272;115132;-60
2024/02/06 09:00:37;;;;;;;18.20;6.90;;;;;;;9.66;71.59;99570.42;129778;1273;114814;-60
2024/02/06 09:03:39;;;;;;;8.20;2.60;;;;;;;9.70;71.54;99562.37;129616;1273;114684;-61
2024/02/06 09:06:41;;;;;;;7.00;1.70;;;;;;;9.75;71.33;99557.79;129926;1259;114821;-66
2024/02/06 09:09:43;;;;;;;5.30;1.70;;;;;;;9.80;71.42;99553.94;129616;1273;114840;-67
2024/02/06 09:12:45;;;;;;;3.20;1.40;;;;;;;9.85;71.38;99550.09;129907;1278;115379;-67
2024/02/06 09:15:48;;;;;;;3.10;1.20;;;;;;;9.89;71.42;99549.81;130124;1258;114702;-68
2024/02/06 09:18:50;;;;;;;3.80;1.20;;;;;;;9.94;71.15;99552.42;130074;1268;114824;-66
2024/02/06 09:21:51;;;;;;;3.60;1.70;;;;;;;9.98;71.07;99553.59;129874;1263;114935;-64
2024/02/06 09:24:53;;;;;;;4.20;1.50;;;;;;;10.03;71.26;99557.05;129814;1278;115000;-68
2024/02/06 09:27:56;;;;;;;3.10;1.50;;;;;;;10.07;71.05;99549.87;130315;1267;114714;-65
2024/02/06 09:30:58;;;;;;;5.40;2.10;;;;;;;10.10;71.03;99549.52;129544;1269;114956;-67
2024/02/06 09:34:00;;;;;;;3.90;1.40;;;;;;;10.13;70.71;99551.11;130152;1260;115342;-67
2024/02/06 09:37:03;;;;;;;3.90;1.50;;;;;;;10.17;71.00;99553.37;130183;1268;115094;-68
2024/02/06 09:40:06;;;;;;;3.20;1.40;;;;;;;10.22;70.65;99553.45;130047;1260;114814;-67
2024/02/06 09:43:08;;;;;;;3.30;1.60;;;;;;;10.24;70.48;99553.30;129701;1263;114975;-64
2024/02/06 09:46:10;;;;;;;4.30;1.30;;;;;;;10.31;70.53;99550.41;129736;1260;115377;-66
2024/02/06 09:49:12;;;;;;;2.90;1.30;;;;;;;10.38;70.47;99546.23;129734;1257;114781;-66
2024/02/06 09:52:15;;;;;;;3.40;1.50;;;;;;;10.43;70.13;99540.95;130142;1257;114705;-65
2024/02/06 09:55:20;;;;;;;5.30;1.30;;;;;;;10.48;70.20;99541.53;129818;1278;115174;-66
2024/02/06 09:58:23;;;;;;;5.30;1.70;;;;;;;10.52;70.13;99545.42;130162;1260;114742;-67
2024/02/06 10:01:25;;;;;;;3.30;1.60;;;;;;;10.56;69.98;99551.43;129952;1260;115256;-67
2024/02/06 10:04:31;;;;;;;2.20;1.20;;;;;;;10.57;69.62;99545.97;129970;1260;114757;-66
2024/02/06 10:07:33;;;;;;;6.10;1.60;;;;;;;10.60;69.75;99541.73;129898;1273;114818;-66
2024/02/06 10:10:35;;;;;;;3.50;1.30;;;;;;;10.61;69.42;99544.10;129915;1264;114729;-66
2024/02/06 10:13:38;;;;;;;3.40;1.60;;;;;;;10.66;69.14;99537.23;129943;1262;115448;-66
2024/02/06 10:16:41;;;;;;;4.50;1.40;;;;;;;10.70;69.30;99536.27;129779;1258;115683;-67
2024/02/06 10:19:43;;;;;;;7.20;1.70;;;;;;;10.73;69.45;99530.92;129579;1266;114755;-67
2024/02/06 10:22:46;;;;;;;2.40;1.10;;;;;;;10.75;68.93;99529.17;130135;1258;114733;-66
2024/02/06 10:25:50;;;;;;;4.30;1.50;;;;;;;10.80;69.14;99527.05;129575;1262;114717;-65
2024/02/06 10:29:06;;;;;;;4.50;2.00;;;;;;;10.86;68.70;99525.63;129992;1260;114700;-69
2024/02/06 10:32:12;;;;;;;4.80;1.50;;;;;;;10.91;68.85;99517.96;129928;1258;115300;-71
2024/02/06 10:35:15;;;;;;;5.00;1.50;;;;;;;10.95;68.19;99516.31;129987;1264;114825;-66
2024/02/06 10:38:17;;;;;;;3.50;1.60;;;;;;;11.01;68.31;99511.48;130245;1273;114729;-68
2024/02/06 10:41:19;;;;;;;3.80;1.70;;;;;;;11.09;68.27;99511.15;130393;1270;114747;-69
2024/02/06 10:44:22;;;;;;;4.60;1.40;;;;;;;11.17;68.18;99506.80;130065;1273;114852;-67
2024/02/06 10:47:25;;;;;;;3.60;1.00;;;;;;;11.26;67.73;99507.69;130074;1266;114810;-68
2024/02/06 10:50:27;;;;;;;3.80;1.80;;;;;;;11.32;67.16;99505.53;130061;1261;115956;-66
2024/02/06 10:53:29;;;;;;;3.20;1.40;;;;;;;11.36;67.28;99496.85;130017;1264;114712;-68
2024/02/06 10:56:32;;;;;;;3.70;1.60;;;;;;;11.40;67.26;99497.65;130268;1260;114747;-66
2024/02/06 10:59:59;;;;;;;4.40;1.30;;;;;;;11.43;67.02;99486.73;130049;1261;129912;-69
2024/02/06 11:03:05;;;;;;;4.10;2.40;;;;;;;11.47;66.62;99484.16;129927;1263;116486;-68
2024/02/06 11:06:17;;;;;;;2.70;1.00;;;;;;;11.53;66.39;99477.88;130064;1264;114659;-67
2024/02/06 11:09:21;;;;;;;4.10;1.60;;;;;;;11.60;66.49;99475.66;130359;1270;114965;-69
2024/02/06 11:12:23;;;;;;;3.80;1.30;;;;;;;11.66;66.10;99468.55;130299;1262;114786;-65
2024/02/06 11:15:26;;;;;;;3.00;1.70;;;;;;;11.74;65.69;99469.33;130157;1279;115092;-65
2024/02/06 11:18:30;;;;;;;2.70;1.20;;;;;;;11.78;65.56;99470.98;130165;1270;114736;-66
2024/02/06 11:21:38;;;;;;;3.70;1.40;;;;;;;11.79;65.07;99460.93;129537;1273;114796;-65
2024/02/06 11:24:41;;;;;;;4.00;1.00;;;;;;;11.75;64.83;99459.97;130117;1263;114887;-66
2024/02/06 11:27:44;;;;;;;1.90;1.10;;;;;;;11.74;65.03;99460.39;129997;1257;114727;-66
2024/02/06 11:30:46;;;;;;;3.70;1.00;;;;;;;11.77;64.84;99460.16;129933;1261;114789;-69
2024/02/06 11:33:49;;;;;;;5.10;1.30;;;;;;;11.82;65.18;99454.96;130072;1263;114724;-70
2024/02/06 11:36:50;;;;;;;2.20;1.40;;;;;;;11.86;64.87;99456.48;130043;1260;114811;-69
2024/02/06 11:40:05;;;;;;;2.70;1.10;;;;;;;11.90;64.22;99453.60;129893;1277;114737;-68
2024/02/06 11:43:07;;;;;;;2.50;0.90;;;;;;;11.94;64.67;99449.35;130094;1277;115554;-68
2024/02/06 11:46:09;;;;;;;2.50;1.00;;;;;;;11.99;64.27;99448.10;130220;1270;114967;-68
2024/02/06 11:49:15;;;;;;;2.60;1.30;;;;;;;12.02;64.17;99434.00;130169;1263;114799;-68
2024/02/06 11:52:20;;;;;;;3.80;0.90;;;;;;;12.05;64.17;99430.02;130272;1271;114963;-69
2024/02/06 11:55:22;;;;;;;4.10;1.30;;;;;;;12.07;63.83;99431.27;130022;1263;127859;-66
2024/02/06 11:58:25;;;;;;;3.80;1.00;;;;;;;12.07;63.98;99428.81;129505;1260;115484;-64
2024/02/06 12:01:27;;;;;;;4.10;1.10;;;;;;;12.06;63.75;99429.39;129810;1257;114798;-66
2024/02/06 12:04:30;;;;;;;3.80;1.30;;;;;;;12.01;63.76;99434.17;129778;1257;114750;-67
2024/02/06 12:07:31;;;;;;;3.90;1.10;;;;;;;11.96;63.48;99434.01;129705;1260;114725;-65
2024/02/06 12:10:35;;;;;;;3.40;1.30;;;;;;;11.91;63.92;99435.25;129829;1261;114716;-68
2024/02/06 12:13:38;;;;;;;2.70;1.10;;;;;;;11.85;63.33;99429.90;129771;1260;114724;-67
2024/02/06 12:16:41;;;;;;;2.90;1.60;;;;;;;11.78;63.12;99426.11;129627;1260;114817;-67
2024/02/06 12:19:44;;;;;;;3.60;1.60;;;;;;;11.75;63.51;99426.14;129782;1260;115339;-67
2024/02/06 12:22:57;;;;;;;2.70;1.10;;;;;;;11.73;63.66;99424.86;129678;1259;114702;-67
2024/02/06 12:25:59;;;;;;;1.70;1.10;;;;;;;11.71;63.41;99427.29;129711;1257;114881;-67
2024/02/06 12:29:05;;;;;;;1.70;0.80;;;;;;;11.70;63.49;99416.80;129810;1278;115234;-65
2024/02/06 12:32:08;;;;;;;3.20;1.00;;;;;;;11.72;63.49;99419.91;129599;1278;127946;-62
2024/02/06 12:35:10;;;;;;;2.50;0.80;;;;;;;11.74;63.59;99417.80;132956;1256;115166;-63
2024/02/06 12:38:12;;;;;;;5.20;1.00;;;;;;;11.73;63.56;99411.09;129950;1256;114748;-63
2024/02/06 12:41:14;;;;;;;2.90;1.30;;;;;;;11.69;63.43;99404.33;129825;1270;114764;-63
2024/02/06 12:44:26;;;;;;;4.40;1.20;;;;;;;11.66;62.94;99407.40;129877;1261;114740;-63
2024/02/06 12:47:28;;;;;;;4.50;1.40;;;;;;;11.62;62.94;99404.16;129825;1277;114782;-63
2024/02/06 12:50:31;;;;;;;2.80;1.30;;;;;;;11.55;63.15;99402.81;129898;1278;114738;-62
2024/02/06 12:53:33;;;;;;;4.40;1.70;;;;;;;11.50;63.12;99401.86;130071;1278;114697;-63
2024/02/06 12:56:35;;;;;;;3.50;1.50;;;;;;;11.46;63.30;99401.99;129945;1275;115266;-63
2024/02/06 12:59:37;;;;;;;1.70;0.80;;;;;;;11.42;62.95;99396.89;129877;1258;115277;-63
2024/02/06 13:02:40;;;;;;;2.80;1.00;;;;;;;11.39;63.21;99397.28;129654;1278;114718;-63
2024/02/06 13:05:44;;;;;;;2.30;1.40;;;;;;;11.37;63.42;99398.45;129978;1275;115160;-64
2024/02/06 13:08:50;;;;;;;2.90;1.10;;;;;;;11.33;63.27;99396.19;129794;1278;114715;-63
2024/02/06 13:11:53;;;;;;;3.50;1.10;;;;;;;11.30;63.15;99389.85;129548;1278;114783;-62
2024/02/06 13:14:55;;;;;;;2.30;1.10;;;;;;;11.26;63.66;99395.24;129890;1259;114863;-64
2024/02/06 13:17:58;;;;;;;2.30;1.30;;;;;;;11.24;63.59;99397.20;129932;1260;115081;-64
2024/02/06 13:21:03;;;;;;;2.30;1.20;;;;;;;11.18;63.33;99396.69;129826;1278;114750;-63
2024/02/06 13:24:06;;;;;;;3.10;1.30;;;;;;;11.14;63.48;99394.80;129618;1263;129272;-64
2024/02/06 13:27:09;;;;;;;2.90;0.90;;;;;;;11.10;63.71;99394.55;129676;1277;265920;-63
2024/02/06 13:30:13;;;;;;;2.80;1.50;;;;;;;11.06;63.44;99390.36;129659;1261;115539;-64
2024/02/06 13:33:15;;;;;;;3.60;1.50;;;;;;;11.02;63.47;99390.23;129845;1261;115382;-63
2024/02/06 13:36:17;;;;;;;1.60;1.10;;;;;;;10.97;63.62;99394.68;129837;1261;114690;-64
2024/02/06 13:39:19;;;;;;;2.80;0.90;;;;;;;10.93;63.56;99389.21;129668;1278;114804;-63
2024/02/06 13:42:22;;;;;;;3.50;1.40;;;;;;;10.91;63.95;99390.95;129775;1278;128450;-64
2024/02/06 13:45:24;;;;;;;3.00;1.60;;;;;;;10.88;64.13;99381.48;129863;1278;115317;-64
2024/02/06 13:48:26;;;;;;;5.00;1.00;;;;;;;10.86;63.90;99383.05;129825;1278;114811;-63
2024/02/06 13:51:29;;;;;;;3.20;1.00;;;;;;;10.85;64.36;99377.79;129846;1271;114707;-63
2024/02/06 13:54:30;;;;;;;3.00;1.00;;;;;;;10.82;64.00;99382.42;129553;1260;114814;-64
2024/02/06 13:57:33;;;;;;;2.50;1.00;;;;;;;10.78;64.04;99379.98;129867;1259;114721;-64
2024/02/06 14:00:35;;;;;;;3.50;1.10;;;;;;;10.76;64.30;99376.77;129921;1259;114722;-64
2024/02/06 14:03:37;;;;;;;2.80;1.00;;;;;;;10.74;64.13;99372.95;129591;1278;130156;-63
2024/02/06 14:06:40;;;;;;;2.00;1.10;;;;;;;10.72;63.74;99368.83;129746;1268;114702;-66